Time;durP1;ratioP1;P1;durP2;ratioP2;P2;SDS_P1;SDS_P2;PMS_P1;PMS_P2;Temp;Humidity;BMP_temperature;BMP_pressure;BME280_temperature;BME280_humidity;BME280_pressure;Samples;Min_cycle;Max_cycle;Signal;HPM_P1;HPM_P2
2023/10/10 00:01:05;;;;;;;0.20;0.20;;;;;;;;;;4980419;28;20034;-93
2023/10/10 00:03:32;;;;;;;0.10;0.10;;;;;;;;;;4980262;28;20488;-93
2023/10/10 00:05:59;;;;;;;0.20;0.20;;;;;;;;;;4997526;28;20149;-93
2023/10/10 00:08:44;;;;;;;0.20;0.20;;;;;;;;;;4996860;28;20129;-94
2023/10/10 00:11:18;;;;;;;0.10;0.10;;;;;;;;;;4980419;28;20038;-92
2023/10/10 00:13:52;;;;;;;0.20;0.20;;;;;;;;;;4979562;28;20045;-94
2023/10/10 00:16:23;;;;;;;0.20;0.20;;;;;;;;;;4980034;28;20084;-93
2023/10/10 00:18:50;;;;;;;0.15;0.15;;;;;;;;;;4995745;28;20081;-93
2023/10/10 00:21:28;;;;;;;0.10;0.10;;;;;;;;;;4979287;28;20053;-93
2023/10/10 00:23:59;;;;;;;0.15;0.15;;;;;;;;;;4980808;28;20092;-94
2023/10/10 00:26:26;;;;;;;0.20;0.20;;;;;;;;;;4980809;28;20046;-94
2023/10/10 00:28:55;;;;;;;0.20;0.20;;;;;;;;;;4979305;28;20043;-94
2023/10/10 00:31:22;;;;;;;0.20;0.20;;;;;;;;;;4979096;28;20074;-93
2023/10/10 00:33:50;;;;;;;0.20;0.20;;;;;;;;;;4979053;28;20034;-94
2023/10/10 00:36:27;;;;;;;0.20;0.20;;;;;;;;;;4979597;28;20183;-94
2023/10/10 00:39:06;;;;;;;0.20;0.20;;;;;;;;;;4979691;28;20380;-94
2023/10/10 00:41:42;;;;;;;0.10;0.10;;;;;;;;;;4979427;28;20046;-93
2023/10/10 00:44:12;;;;;;;0.20;0.20;;;;;;;;;;4976176;28;20042;-94
2023/10/10 00:46:39;;;;;;;0.20;0.20;;;;;;;;;;4962688;28;20042;-95
2023/10/10 00:49:10;;;;;;;0.20;0.20;;;;;;;;;;4979592;28;20046;-96
2023/10/10 00:51:39;;;;;;;0.10;0.10;;;;;;;;;;4980131;28;20093;-94
2023/10/10 00:54:13;;;;;;;0.20;0.20;;;;;;;;;;4980100;28;20092;-94
2023/10/10 00:56:44;;;;;;;0.30;0.30;;;;;;;;;;4980401;28;20077;-92
2023/10/10 00:59:11;;;;;;;0.20;0.20;;;;;;;;;;4979698;28;20038;-95
2023/10/10 01:01:40;;;;;;;0.10;0.10;;;;;;;;;;4979326;28;20097;-95
2023/10/10 01:04:07;;;;;;;0.20;0.20;;;;;;;;;;4979935;28;20046;-96
2023/10/10 01:06:39;;;;;;;0.30;0.30;;;;;;;;;;4996176;28;20061;-95
2023/10/10 01:09:21;;;;;;;0.20;0.20;;;;;;;;;;4976932;28;20061;-95
2023/10/10 01:11:50;;;;;;;0.20;0.20;;;;;;;;;;4967671;28;20129;-94
2023/10/10 01:14:24;;;;;;;0.10;0.10;;;;;;;;;;4979266;28;20110;-93
2023/10/10 01:16:54;;;;;;;0.10;0.10;;;;;;;;;;4979291;28;20074;-94
2023/10/10 01:19:21;;;;;;;0.20;0.20;;;;;;;;;;4978251;28;20039;-95
2023/10/10 01:21:51;;;;;;;0.10;0.10;;;;;;;;;;4978723;28;20042;-94
2023/10/10 01:24:40;;;;;;;0.22;0.22;;;;;;;;;;4993509;28;20124;-93
2023/10/10 01:27:21;;;;;;;0.10;0.10;;;;;;;;;;4978721;28;20046;-95
2023/10/10 01:30:43;;;;;;;0.30;0.30;;;;;;;;;;4978260;28;20050;-94
2023/10/10 01:32:38;;;;;;;0.20;0.20;;;;;;;;;;4981839;28;20129;-95
2023/10/10 01:35:15;;;;;;;0.20;0.20;;;;;;;;;;4976114;28;20408;-96
2023/10/10 01:37:41;;;;;;;0.05;0.05;;;;;;;;;;4960742;28;20035;-93
2023/10/10 01:40:16;;;;;;;0.10;0.10;;;;;;;;;;4967313;28;20038;-96
2023/10/10 01:42:51;;;;;;;0.10;0.10;;;;;;;;;;4978846;28;20042;-95
2023/10/10 01:45:19;;;;;;;0.25;0.25;;;;;;;;;;4975848;28;20042;-96
2023/10/10 01:47:56;;;;;;;0.10;0.10;;;;;;;;;;4959572;28;20041;-96
2023/10/10 01:50:26;;;;;;;0.10;0.10;;;;;;;;;;4975529;28;20039;-94
2023/10/10 01:52:55;;;;;;;0.20;0.20;;;;;;;;;;4959911;28;20153;-93
2023/10/10 01:55:24;;;;;;;0.20;0.20;;;;;;;;;;4977419;28;20038;-95
2023/10/10 01:57:51;;;;;;;0.20;0.20;;;;;;;;;;4978901;28;20046;-95
2023/10/10 02:00:26;;;;;;;0.20;0.20;;;;;;;;;;4994300;28;20109;-93
2023/10/10 02:02:56;;;;;;;0.10;0.10;;;;;;;;;;4978878;28;20129;-93
2023/10/10 02:08:01;;;;;;;0.10;0.10;;;;;;;;;;4980512;28;20492;-93
2023/10/10 02:10:29;;;;;;;0.15;0.15;;;;;;;;;;4979144;28;20038;-94
2023/10/10 02:12:59;;;;;;;0.10;0.10;;;;;;;;;;4979882;28;20039;-95
2023/10/10 02:15:32;;;;;;;0.10;0.10;;;;;;;;;;4980602;28;20045;-95
2023/10/10 02:18:04;;;;;;;0.20;0.20;;;;;;;;;;4983748;28;20050;-93
2023/10/10 02:23:09;;;;;;;0.10;0.10;;;;;;;;;;4997604;28;20054;-94
2023/10/10 02:31:02;;;;;;;0.20;0.20;;;;;;;;;;4930402;28;20506;-94
2023/10/10 02:33:31;;;;;;;0.20;0.20;;;;;;;;;;4981435;28;20039;-94
2023/10/10 02:35:57;;;;;;;0.20;0.20;;;;;;;;;;4981714;28;20094;-95
2023/10/10 02:38:34;;;;;;;0.30;0.30;;;;;;;;;;4982068;28;20038;-95
2023/10/10 02:43:55;;;;;;;0.10;0.10;;;;;;;;;;4998438;28;20046;-95
2023/10/10 02:46:34;;;;;;;0.25;0.25;;;;;;;;;;4982269;28;20045;-94
2023/10/10 02:49:02;;;;;;;0.20;0.20;;;;;;;;;;4981074;28;20049;-95
2023/10/10 02:51:28;;;;;;;0.20;0.20;;;;;;;;;;4981290;28;20114;-94
2023/10/10 02:53:54;;;;;;;0.20;0.20;;;;;;;;;;4981505;28;20514;-95
2023/10/10 02:56:20;;;;;;;0.20;0.20;;;;;;;;;;4980892;28;20129;-93
2023/10/10 02:58:53;;;;;;;0.10;0.10;;;;;;;;;;4981390;28;20133;-94
2023/10/10 03:04:08;;;;;;;0.20;0.20;;;;;;;;;;4998140;28;20472;-94
2023/10/10 03:06:33;;;;;;;0.15;0.15;;;;;;;;;;4980555;28;20045;-93
2023/10/10 03:12:03;;;;;;;0.10;0.10;;;;;;;;;;4997164;28;20054;-95
2023/10/10 03:14:33;;;;;;;0.20;0.20;;;;;;;;;;4984316;28;20042;-94
2023/10/10 03:17:01;;;;;;;0.40;0.40;;;;;;;;;;4980859;28;20045;-94
2023/10/10 03:19:28;;;;;;;0.15;0.15;;;;;;;;;;4996489;28;20073;-94
2023/10/10 03:30:34;;;;;;;0.20;0.20;;;;;;;;;;4996791;28;20054;-94
2023/10/10 03:33:08;;;;;;;0.20;0.20;;;;;;;;;;4978481;28;20129;-94
2023/10/10 03:35:52;;;;;;;0.10;0.10;;;;;;;;;;4978872;28;20461;-92
2023/10/10 05:23:34;;;;;;;0.10;0.10;;;;;;;;;;4994053;28;20081;-91
2023/10/10 05:26:02;;;;;;;0.20;0.20;;;;;;;;;;4979164;28;20038;-91
2023/10/10 05:28:32;;;;;;;0.00;0.00;;;;;;;;;;4975518;28;20125;-92
2023/10/10 05:30:58;;;;;;;0.10;0.10;;;;;;;;;;4958608;28;20483;-92
2023/10/10 05:33:26;;;;;;;0.25;0.25;;;;;;;;;;4958477;28;20042;-91
2023/10/10 05:35:57;;;;;;;0.17;0.17;;;;;;;;;;4959168;28;20047;-92
2023/10/10 05:38:25;;;;;;;0.20;0.20;;;;;;;;;;4957999;28;20146;-92
2023/10/10 05:40:51;;;;;;;0.10;0.10;;;;;;;;;;4967923;28;20093;-92
2023/10/10 05:43:26;;;;;;;0.20;0.20;;;;;;;;;;4978349;28;20049;-91
2023/10/10 05:45:52;;;;;;;0.20;0.20;;;;;;;;;;4994712;28;20153;-92
2023/10/10 05:48:19;;;;;;;0.17;0.17;;;;;;;;;;4977996;28;20050;-92
2023/10/10 05:50:46;;;;;;;0.20;0.20;;;;;;;;;;4996118;28;20069;-91
2023/10/10 05:53:16;;;;;;;0.10;0.10;;;;;;;;;;4981685;28;20034;-93
2023/10/10 05:55:58;;;;;;;0.10;0.10;;;;;;;;;;4976718;28;20065;-93
2023/10/10 05:58:50;;;;;;;0.20;0.20;;;;;;;;;;4991856;28;20045;-91
2023/10/10 06:01:25;;;;;;;0.20;0.20;;;;;;;;;;5005704;28;20050;-91
2023/10/10 06:04:22;;;;;;;0.30;0.30;;;;;;;;;;5015213;28;20050;-92
2023/10/10 06:06:59;;;;;;;0.10;0.10;;;;;;;;;;5016727;28;20038;-92
2023/10/10 06:10:06;;;;;;;;;;;;;;;;;;;;;
2023/10/10 06:20:26;;;;;;;0.17;0.17;;;;;;;;;;5006280;23;20109;-93
2023/10/10 06:22:55;;;;;;;0.20;0.20;;;;;;;;;;4982854;28;20094;-92
2023/10/10 06:25:25;;;;;;;0.10;0.10;;;;;;;;;;4980471;28;20058;-92
2023/10/10 06:28:25;;;;;;;0.20;0.20;;;;;;;;;;4997253;28;20038;-92
2023/10/10 06:43:52;;;;;;;0.15;0.15;;;;;;;;;;5196039;23;20072;-93
2023/10/10 06:46:23;;;;;;;0.20;0.20;;;;;;;;;;5020239;28;20074;-88
2023/10/10 06:49:04;;;;;;;0.20;0.20;;;;;;;;;;5030233;28;20046;-93
2023/10/10 06:51:55;;;;;;;0.10;0.10;;;;;;;;;;5004033;28;20026;-92
2023/10/10 06:54:34;;;;;;;0.20;0.20;;;;;;;;;;5015059;28;20618;-91
2023/10/10 07:10:09;;;;;;;0.10;0.10;;;;;;;;;;5051955;26;20076;-90
2023/10/10 07:12:57;;;;;;;0.10;0.10;;;;;;;;;;5055925;28;20080;-91
2023/10/10 07:15:35;;;;;;;0.20;0.20;;;;;;;;;;5049681;28;20112;-93
2023/10/10 07:18:08;;;;;;;0.20;0.20;;;;;;;;;;5039482;28;20030;-90
2023/10/10 07:23:24;;;;;;;0.10;0.10;;;;;;;;;;5055982;28;20025;-91
2023/10/10 07:26:05;;;;;;;0.10;0.10;;;;;;;;;;5035451;28;20037;-89
2023/10/10 07:28:47;;;;;;;0.30;0.30;;;;;;;;;;5055421;28;20044;-90
2023/10/10 07:31:21;;;;;;;0.20;0.20;;;;;;;;;;5040410;28;20041;-92
2023/10/10 07:33:56;;;;;;;0.13;0.13;;;;;;;;;;5039694;28;20057;-92
2023/10/10 07:36:27;;;;;;;0.20;0.20;;;;;;;;;;5039019;28;20064;-93
2023/10/10 07:38:54;;;;;;;0.17;0.17;;;;;;;;;;5037449;28;20099;-92
2023/10/10 07:41:33;;;;;;;0.10;0.10;;;;;;;;;;5055119;28;20068;-94
2023/10/10 07:47:07;;;;;;;0.10;0.10;;;;;;;;;;5049084;23;20033;-91
2023/10/10 07:49:33;;;;;;;0.10;0.10;;;;;;;;;;5040167;28;20037;-90
2023/10/10 07:52:16;;;;;;;0.20;0.20;;;;;;;;;;5024540;28;20098;-91
2023/10/10 07:54:46;;;;;;;0.10;0.10;;;;;;;;;;5020267;28;20053;-89
2023/10/10 07:57:18;;;;;;;0.20;0.20;;;;;;;;;;5021693;28;20056;-93
2023/10/10 07:59:58;;;;;;;0.20;0.20;;;;;;;;;;5023231;28;20112;-93
2023/10/10 08:02:53;;;;;;;0.13;0.13;;;;;;;;;;5049290;28;20099;-91
2023/10/10 08:05:57;;;;;;;0.17;0.17;;;;;;;;;;5042315;28;20183;-90
2023/10/10 08:08:25;;;;;;;0.20;0.20;;;;;;;;;;5036515;28;20128;-91
2023/10/10 08:11:05;;;;;;;0.20;0.20;;;;;;;;;;5034523;28;20057;-92
2023/10/10 08:13:34;;;;;;;0.20;0.20;;;;;;;;;;5022822;28;20030;-89
2023/10/10 08:16:04;;;;;;;0.15;0.15;;;;;;;;;;5021483;28;20121;-90
2023/10/10 08:21:35;;;;;;;;;;;;;;;;;;;;;
2023/10/10 08:24:33;;;;;;;0.15;0.15;;;;;;;;;;5008527;28;20061;-89
2023/10/10 08:27:09;;;;;;;0.20;0.20;;;;;;;;;;4997535;28;20065;-89
2023/10/10 08:32:31;;;;;;;0.10;0.10;;;;;;;;;;5003353;28;20097;-91
2023/10/10 08:35:00;;;;;;;0.10;0.10;;;;;;;;;;5345170;23;20057;-93
2023/10/10 08:37:44;;;;;;;0.10;0.10;;;;;;;;;;5030419;28;20045;-92
2023/10/10 08:40:26;;;;;;;0.10;0.10;;;;;;;;;;5058254;28;20083;-92
2023/10/10 08:42:52;;;;;;;0.20;0.20;;;;;;;;;;5041800;28;20085;-91
2023/10/10 08:45:25;;;;;;;0.20;0.20;;;;;;;;;;5057194;28;20049;-92
2023/10/10 08:51:19;;;;;;;0.10;0.10;;;;;;;;;;4970447;28;20051;-91
2023/10/10 08:53:54;;;;;;;0.22;0.22;;;;;;;;;;5041784;28;20148;-92
2023/10/10 08:56:38;;;;;;;0.20;0.20;;;;;;;;;;5014451;28;20050;-93
2023/10/10 09:22:51;;;;;;;0.10;0.10;;;;;;;;;;831415;26;20304;-88
2023/10/10 09:25:25;;;;;;;0.20;0.20;;;;;;;;;;4995835;28;20057;-93
2023/10/10 09:28:36;;;;;;;0.10;0.10;;;;;;;;;;4996644;28;20119;-92
2023/10/10 09:31:26;;;;;;;0.20;0.20;;;;;;;;;;4981655;28;20030;-93
2023/10/10 09:33:56;;;;;;;0.22;0.22;;;;;;;;;;4980138;28;20074;-91
2023/10/10 09:36:28;;;;;;;0.30;0.30;;;;;;;;;;4992769;28;20062;-90
2023/10/10 09:39:36;;;;;;;0.00;0.00;;;;;;;;;;4984458;28;20046;-92
2023/10/10 09:42:07;;;;;;;0.10;0.10;;;;;;;;;;4994192;28;20046;-91
2023/10/10 09:52:53;;;;;;;0.10;0.10;;;;;;;;;;4996604;28;20046;-89
2023/10/10 10:03:31;;;;;;;0.15;0.15;;;;;;;;;;4997515;28;20042;-90
2023/10/10 10:06:19;;;;;;;0.10;0.10;;;;;;;;;;5010120;28;20134;-92
2023/10/10 10:09:19;;;;;;;0.00;0.00;;;;;;;;;;4995167;28;20038;-94
2023/10/10 10:12:04;;;;;;;0.10;0.10;;;;;;;;;;4982053;28;20051;-93
2023/10/10 10:14:37;;;;;;;0.20;0.20;;;;;;;;;;4976540;28;20037;-94
2023/10/10 10:17:53;;;;;;;0.10;0.10;;;;;;;;;;4962316;28;20053;-94
2023/10/10 10:23:56;;;;;;;0.15;0.15;;;;;;;;;;5011456;28;20115;-91
2023/10/10 10:26:44;;;;;;;0.10;0.10;;;;;;;;;;4997354;28;20086;-92
2023/10/10 10:57:27;;;;;;;0.30;0.30;;;;;;;;;;5035050;28;20064;-91
2023/10/10 10:59:55;;;;;;;0.10;0.10;;;;;;;;;;5020049;28;20064;-93
2023/10/10 11:02:35;;;;;;;0.10;0.10;;;;;;;;;;5019097;28;20038;-92
2023/10/10 11:05:07;;;;;;;0.47;0.47;;;;;;;;;;5002452;28;20125;-91
2023/10/10 11:07:41;;;;;;;0.20;0.20;;;;;;;;;;5002585;28;20056;-91
2023/10/10 11:10:11;;;;;;;0.00;0.00;;;;;;;;;;5018735;28;20053;-92
2023/10/10 11:12:50;;;;;;;0.10;0.10;;;;;;;;;;5022596;28;20037;-90
2023/10/10 11:15:22;;;;;;;0.08;0.08;;;;;;;;;;5037547;28;20043;-89
2023/10/10 11:18:07;;;;;;;0.10;0.10;;;;;;;;;;5032767;28;20065;-88
2023/10/10 11:20:56;;;;;;;0.10;0.10;;;;;;;;;;5021312;28;20041;-87
2023/10/10 11:23:41;;;;;;;0.10;0.10;;;;;;;;;;5018556;28;20041;-88
2023/10/10 11:26:14;;;;;;;0.00;0.00;;;;;;;;;;5002502;28;20073;-89
2023/10/10 11:28:47;;;;;;;0.17;0.17;;;;;;;;;;4985946;28;20050;-90
2023/10/10 11:31:14;;;;;;;0.10;0.10;;;;;;;;;;4985455;28;20106;-86
2023/10/10 11:34:10;;;;;;;0.10;0.10;;;;;;;;;;4965796;28;20395;-88
2023/10/10 11:36:51;;;;;;;0.10;0.10;;;;;;;;;;4998474;28;20074;-90
2023/10/10 11:39:33;;;;;;;0.10;0.10;;;;;;;;;;4994097;28;20042;-89
2023/10/10 13:54:24;;;;;;;0.00;0.00;;;;;;;;;;5033668;28;20049;-91
2023/10/10 13:56:50;;;;;;;0.20;0.20;;;;;;;;;;5000165;28;20124;-92
2023/10/10 14:09:37;;;;;;;0.10;0.10;;;;;;;;;;5039490;28;20128;-96
2023/10/10 14:12:03;;;;;;;0.20;0.20;;;;;;;;;;5023190;28;20142;-95
2023/10/10 14:14:30;;;;;;;0.10;0.10;;;;;;;;;;5008043;28;20206;-95
2023/10/10 14:16:56;;;;;;;0.10;0.10;;;;;;;;;;5008830;28;20087;-94
2023/10/10 14:19:25;;;;;;;0.22;0.22;;;;;;;;;;5012997;28;20049;-96
2023/10/10 14:21:55;;;;;;;0.08;0.08;;;;;;;;;;5024101;28;20041;-96
2023/10/10 14:24:21;;;;;;;0.08;0.08;;;;;;;;;;5008432;28;20048;-94
2023/10/10 14:26:48;;;;;;;0.00;0.00;;;;;;;;;;5008462;28;20045;-95
2023/10/10 14:29:14;;;;;;;0.22;0.22;;;;;;;;;;5006350;28;20164;-91
2023/10/10 14:31:44;;;;;;;0.00;0.00;;;;;;;;;;5001226;28;20513;-91
2023/10/10 14:34:24;;;;;;;0.10;0.10;;;;;;;;;;5028697;28;20044;-91
2023/10/10 14:36:53;;;;;;;0.03;0.03;;;;;;;;;;5017835;28;20067;-91
2023/10/10 14:39:44;;;;;;;0.10;0.10;;;;;;;;;;5015820;28;20051;-92
2023/10/10 14:42:11;;;;;;;3.13;1.45;;;;;;;;;;5014749;28;20124;-91
2023/10/10 14:44:40;;;;;;;0.10;0.10;;;;;;;;;;5013185;28;20057;-90
2023/10/10 14:47:09;;;;;;;0.00;0.00;;;;;;;;;;5011680;28;20053;-91
2023/10/10 14:49:38;;;;;;;0.10;0.10;;;;;;;;;;5012882;28;20041;-93
2023/10/10 14:52:04;;;;;;;0.40;0.40;;;;;;;;;;5012821;28;20091;-92
2023/10/10 14:54:48;;;;;;;0.10;0.10;;;;;;;;;;5014138;28;20048;-92
2023/10/10 14:57:24;;;;;;;0.10;0.10;;;;;;;;;;5014325;28;20071;-92
2023/10/10 14:59:50;;;;;;;0.00;0.00;;;;;;;;;;5014500;28;20044;-92
2023/10/10 15:02:16;;;;;;;0.10;0.10;;;;;;;;;;5013784;28;20119;-92
2023/10/10 15:04:42;;;;;;;0.10;0.10;;;;;;;;;;5013963;28;20041;-92
2023/10/10 15:07:08;;;;;;;0.10;0.10;;;;;;;;;;5013870;28;20055;-92
2023/10/10 15:09:39;;;;;;;0.00;0.00;;;;;;;;;;5030178;28;20045;-92
2023/10/10 15:12:07;;;;;;;0.10;0.10;;;;;;;;;;5013844;28;20067;-91
2023/10/10 15:14:33;;;;;;;0.10;0.10;;;;;;;;;;5014637;28;20075;-91
2023/10/10 15:17:00;;;;;;;0.20;0.20;;;;;;;;;;5014511;28;20072;-92
2023/10/10 15:19:27;;;;;;;0.13;0.13;;;;;;;;;;5014175;28;20104;-93
2023/10/10 15:21:56;;;;;;;0.00;0.00;;;;;;;;;;5014419;28;20052;-94
2023/10/10 15:24:23;;;;;;;0.00;0.00;;;;;;;;;;5014807;28;20064;-92
2023/10/10 15:26:51;;;;;;;0.10;0.10;;;;;;;;;;5015861;28;20037;-93
2023/10/10 15:29:18;;;;;;;0.20;0.20;;;;;;;;;;5015444;28;20049;-94
2023/10/10 15:31:45;;;;;;;0.10;0.10;;;;;;;;;;5015518;28;20092;-93
2023/10/10 15:34:11;;;;;;;0.00;0.00;;;;;;;;;;5014907;28;20038;-92
2023/10/10 15:36:38;;;;;;;0.08;0.08;;;;;;;;;;5010588;28;20077;-92
2023/10/10 15:39:05;;;;;;;0.10;0.10;;;;;;;;;;5010994;28;20045;-93
2023/10/10 15:41:32;;;;;;;0.10;0.10;;;;;;;;;;5010857;28;20041;-93
2023/10/10 15:44:04;;;;;;;0.10;0.10;;;;;;;;;;5014556;28;20048;-92
2023/10/10 15:46:32;;;;;;;0.10;0.10;;;;;;;;;;4999068;28;20092;-93
2023/10/10 15:48:59;;;;;;;0.00;0.00;;;;;;;;;;5014506;28;20064;-92
2023/10/10 15:51:25;;;;;;;0.10;0.10;;;;;;;;;;5014100;28;20045;-92
2023/10/10 15:53:51;;;;;;;0.03;0.03;;;;;;;;;;5014523;28;20045;-92
2023/10/10 15:56:18;;;;;;;0.10;0.10;;;;;;;;;;5015036;28;20061;-93
2023/10/10 15:58:49;;;;;;;0.10;0.10;;;;;;;;;;5014232;28;20137;-92
2023/10/10 16:01:21;;;;;;;0.10;0.10;;;;;;;;;;5014193;28;20041;-92
2023/10/10 16:03:47;;;;;;;0.00;0.00;;;;;;;;;;5014338;28;20092;-92
2023/10/10 16:06:19;;;;;;;0.17;0.17;;;;;;;;;;5014314;28;20052;-92
2023/10/10 16:08:47;;;;;;;0.10;0.10;;;;;;;;;;5012597;28;20097;-91
2023/10/10 16:11:13;;;;;;;0.00;0.00;;;;;;;;;;5017418;28;20042;-92
2023/10/10 16:13:39;;;;;;;0.00;0.00;;;;;;;;;;5016488;28;20105;-92
2023/10/10 16:16:06;;;;;;;0.05;0.05;;;;;;;;;;5016518;28;20037;-92
2023/10/10 16:18:35;;;;;;;0.13;0.13;;;;;;;;;;5016227;28;20042;-92
2023/10/10 16:21:03;;;;;;;0.03;0.03;;;;;;;;;;5016730;28;20064;-92
2023/10/10 16:23:30;;;;;;;0.05;0.05;;;;;;;;;;5016715;28;20041;-92
2023/10/10 16:25:59;;;;;;;0.20;0.20;;;;;;;;;;5016722;28;20097;-92
2023/10/10 16:28:26;;;;;;;0.00;0.00;;;;;;;;;;5015963;28;20127;-92
2023/10/10 16:30:53;;;;;;;0.20;0.20;;;;;;;;;;5016483;28;20038;-90
2023/10/10 16:33:23;;;;;;;0.00;0.00;;;;;;;;;;5014283;28;20399;-90
2023/10/10 16:35:49;;;;;;;0.10;0.10;;;;;;;;;;5014148;28;20534;-91
2023/10/10 16:38:21;;;;;;;0.10;0.10;;;;;;;;;;5013831;28;20041;-90
2023/10/10 16:40:50;;;;;;;0.15;0.15;;;;;;;;;;5015026;28;20037;-90
2023/10/10 16:43:17;;;;;;;0.08;0.08;;;;;;;;;;5014527;28;20061;-90
2023/10/10 16:45:43;;;;;;;0.13;0.13;;;;;;;;;;5014489;28;20041;-90
2023/10/10 16:48:09;;;;;;;0.10;0.10;;;;;;;;;;5013605;28;20068;-91
2023/10/10 16:50:35;;;;;;;0.10;0.10;;;;;;;;;;5011281;28;20105;-90
2023/10/10 16:53:02;;;;;;;0.10;0.10;;;;;;;;;;5009465;28;20037;-90
2023/10/10 16:55:28;;;;;;;0.10;0.10;;;;;;;;;;5010573;28;20060;-90
2023/10/10 16:57:54;;;;;;;0.10;0.10;;;;;;;;;;5014184;28;20033;-90
2023/10/10 17:00:21;;;;;;;0.10;0.10;;;;;;;;;;5013887;28;20136;-90
2023/10/10 17:02:49;;;;;;;0.00;0.00;;;;;;;;;;5010251;28;20046;-90
2023/10/10 17:05:15;;;;;;;0.10;0.10;;;;;;;;;;5010032;28;20102;-91
2023/10/10 17:07:42;;;;;;;0.10;0.10;;;;;;;;;;5010562;28;20038;-91
2023/10/10 17:10:13;;;;;;;0.00;0.00;;;;;;;;;;5009746;28;20049;-90
2023/10/10 17:12:43;;;;;;;0.00;0.00;;;;;;;;;;5013636;28;20033;-91
2023/10/10 17:15:21;;;;;;;0.00;0.00;;;;;;;;;;4994497;28;20042;-91
2023/10/10 17:17:47;;;;;;;0.10;0.10;;;;;;;;;;5008911;28;20128;-90
2023/10/10 17:20:16;;;;;;;0.10;0.10;;;;;;;;;;5024635;28;20048;-91
2023/10/10 17:22:46;;;;;;;0.10;0.10;;;;;;;;;;5008015;28;20041;-91
2023/10/10 17:25:12;;;;;;;0.10;0.10;;;;;;;;;;5008342;28;20042;-91
2023/10/10 17:27:42;;;;;;;0.10;0.10;;;;;;;;;;5011367;28;20041;-90
2023/10/10 17:30:14;;;;;;;0.20;0.20;;;;;;;;;;5028441;28;20053;-91
2023/10/10 17:32:42;;;;;;;0.10;0.10;;;;;;;;;;5007997;28;20038;-91
2023/10/10 17:35:08;;;;;;;0.17;0.17;;;;;;;;;;5024596;28;20065;-90
2023/10/10 17:37:34;;;;;;;0.10;0.10;;;;;;;;;;5007423;28;20448;-91
2023/10/10 17:40:01;;;;;;;0.10;0.10;;;;;;;;;;5011815;28;20075;-91
2023/10/10 17:42:28;;;;;;;0.10;0.10;;;;;;;;;;4998701;28;20050;-91
2023/10/10 17:44:54;;;;;;;0.20;0.20;;;;;;;;;;5000624;28;20059;-91
2023/10/10 17:47:21;;;;;;;0.10;0.10;;;;;;;;;;5012876;28;20037;-91
2023/10/10 17:49:47;;;;;;;0.10;0.10;;;;;;;;;;5009754;28;20049;-91
2023/10/10 17:52:13;;;;;;;0.20;0.20;;;;;;;;;;5010585;28;20038;-91
2023/10/10 17:54:39;;;;;;;0.30;0.30;;;;;;;;;;5011636;28;20038;-91
2023/10/10 17:57:09;;;;;;;0.10;0.10;;;;;;;;;;5012396;28;20088;-91
2023/10/10 17:59:36;;;;;;;0.17;0.17;;;;;;;;;;5029052;28;20045;-91
2023/10/10 18:02:08;;;;;;;0.30;0.30;;;;;;;;;;5016310;28;20138;-91
2023/10/10 18:04:35;;;;;;;0.10;0.10;;;;;;;;;;5031694;28;20045;-92
2023/10/10 18:07:02;;;;;;;0.10;0.10;;;;;;;;;;5015635;28;20089;-91
2023/10/10 18:09:35;;;;;;;0.20;0.20;;;;;;;;;;5012220;28;20330;-91
2023/10/10 18:12:01;;;;;;;0.10;0.10;;;;;;;;;;5029581;28;20045;-92
2023/10/10 18:14:27;;;;;;;0.10;0.10;;;;;;;;;;5013322;28;20042;-91
2023/10/10 18:16:53;;;;;;;0.00;0.00;;;;;;;;;;5011857;28;20024;-90
2023/10/10 18:19:20;;;;;;;0.10;0.10;;;;;;;;;;5014632;28;20059;-91
2023/10/10 18:21:46;;;;;;;0.10;0.10;;;;;;;;;;5011335;28;20050;-91
2023/10/10 18:24:13;;;;;;;0.20;0.20;;;;;;;;;;5014350;28;20052;-91
2023/10/10 18:26:39;;;;;;;0.00;0.00;;;;;;;;;;5015128;28;20129;-91
2023/10/10 18:29:06;;;;;;;0.10;0.10;;;;;;;;;;5014614;28;20041;-91
2023/10/10 18:31:34;;;;;;;0.10;0.10;;;;;;;;;;5014654;28;20037;-91
2023/10/10 18:34:04;;;;;;;0.10;0.10;;;;;;;;;;5030782;28;20041;-92
2023/10/10 18:36:34;;;;;;;0.10;0.10;;;;;;;;;;5031567;28;20049;-91
2023/10/10 18:39:00;;;;;;;0.08;0.08;;;;;;;;;;5015018;28;20105;-91
2023/10/10 18:41:29;;;;;;;0.30;0.30;;;;;;;;;;5015425;28;20089;-91
2023/10/10 18:43:55;;;;;;;0.10;0.10;;;;;;;;;;5014457;28;20045;-91
2023/10/10 18:46:24;;;;;;;0.10;0.10;;;;;;;;;;4999116;28;20069;-92
2023/10/10 18:48:51;;;;;;;0.10;0.10;;;;;;;;;;4994535;28;20045;-91
2023/10/10 18:51:17;;;;;;;0.05;0.05;;;;;;;;;;5011538;28;20569;-91
2023/10/10 18:53:45;;;;;;;0.13;0.13;;;;;;;;;;5010629;28;20037;-90
2023/10/10 18:56:11;;;;;;;0.10;0.10;;;;;;;;;;5015480;28;20037;-92
2023/10/10 18:58:41;;;;;;;0.13;0.13;;;;;;;;;;5013439;28;20041;-92
2023/10/10 19:01:11;;;;;;;0.10;0.10;;;;;;;;;;5013453;28;20041;-91
2023/10/10 19:03:46;;;;;;;0.10;0.10;;;;;;;;;;5013089;28;20041;-91
2023/10/10 19:06:13;;;;;;;0.25;0.25;;;;;;;;;;5010198;28;20093;-92
2023/10/10 19:08:39;;;;;;;0.22;0.22;;;;;;;;;;5029173;28;20057;-92
2023/10/10 19:11:06;;;;;;;0.10;0.10;;;;;;;;;;5009555;28;20045;-91
2023/10/10 19:13:33;;;;;;;0.10;0.10;;;;;;;;;;5012322;28;20555;-91
2023/10/10 19:16:02;;;;;;;0.10;0.10;;;;;;;;;;4998873;28;20038;-92
2023/10/10 19:18:28;;;;;;;0.10;0.10;;;;;;;;;;5014544;28;20042;-91
2023/10/10 19:20:54;;;;;;;0.10;0.10;;;;;;;;;;5016438;28;20044;-92
2023/10/10 19:23:20;;;;;;;0.20;0.20;;;;;;;;;;5008790;28;20041;-92
2023/10/10 19:25:46;;;;;;;0.25;0.25;;;;;;;;;;5011442;28;20097;-92
2023/10/10 19:28:14;;;;;;;0.00;0.00;;;;;;;;;;5014724;28;20037;-91
2023/10/10 19:30:41;;;;;;;0.10;0.10;;;;;;;;;;5009440;28;20044;-92
2023/10/10 19:33:08;;;;;;;0.00;0.00;;;;;;;;;;5010636;28;20045;-92
2023/10/10 19:35:43;;;;;;;0.00;0.00;;;;;;;;;;5008981;28;20072;-92
2023/10/10 19:38:09;;;;;;;;;;;;;;;;;;5013350;28;20045;-92
2023/10/10 19:40:35;;;;;;;0.10;0.10;;;;;;;;;;5011884;28;19901;-92
2023/10/10 19:43:01;;;;;;;0.10;0.10;;;;;;;;;;5027829;28;20042;-92
2023/10/10 19:45:28;;;;;;;0.10;0.10;;;;;;;;;;5012819;28;20048;-91
2023/10/10 19:48:05;;;;;;;0.10;0.10;;;;;;;;;;5013157;28;20045;-91
2023/10/10 19:50:44;;;;;;;0.20;0.20;;;;;;;;;;5010751;28;20110;-92
2023/10/10 19:53:11;;;;;;;0.20;0.20;;;;;;;;;;5011838;28;20162;-92
2023/10/10 19:55:37;;;;;;;0.10;0.10;;;;;;;;;;5013407;28;20045;-92
2023/10/10 19:58:09;;;;;;;0.15;0.15;;;;;;;;;;5012169;28;20101;-92
2023/10/10 20:00:38;;;;;;;0.10;0.10;;;;;;;;;;5013719;28;20114;-92
2023/10/10 20:03:06;;;;;;;0.10;0.10;;;;;;;;;;5006763;28;20084;-92
2023/10/10 20:05:38;;;;;;;0.20;0.20;;;;;;;;;;5010584;28;20087;-92
2023/10/10 20:08:06;;;;;;;0.10;0.10;;;;;;;;;;5027959;28;20045;-92
2023/10/10 20:10:32;;;;;;;0.10;0.10;;;;;;;;;;5012921;28;20033;-92
2023/10/10 20:12:58;;;;;;;0.10;0.10;;;;;;;;;;5011108;28;20038;-92
2023/10/10 20:15:25;;;;;;;0.10;0.10;;;;;;;;;;5011699;28;20275;-92
2023/10/10 20:17:51;;;;;;;0.20;0.20;;;;;;;;;;5011637;28;20034;-92
2023/10/10 20:20:20;;;;;;;0.10;0.10;;;;;;;;;;5011887;28;20077;-91
2023/10/10 20:22:49;;;;;;;0.15;0.15;;;;;;;;;;5005425;28;20034;-92
2023/10/10 20:25:19;;;;;;;0.10;0.10;;;;;;;;;;5008837;28;20053;-95
2023/10/10 20:27:46;;;;;;;0.10;0.10;;;;;;;;;;5011067;28;20462;-91
2023/10/10 20:30:18;;;;;;;0.08;0.08;;;;;;;;;;5011091;28;20040;-91
2023/10/10 20:32:54;;;;;;;0.10;0.10;;;;;;;;;;5009132;28;20048;-92
2023/10/10 20:35:24;;;;;;;0.20;0.20;;;;;;;;;;5011219;28;20402;-92
2023/10/10 20:37:51;;;;;;;0.20;0.20;;;;;;;;;;5012242;28;20045;-92
2023/10/10 20:40:18;;;;;;;0.10;0.10;;;;;;;;;;5016646;28;20140;-92
2023/10/10 20:42:46;;;;;;;0.10;0.10;;;;;;;;;;5003063;28;20045;-92
2023/10/10 20:45:13;;;;;;;0.20;0.20;;;;;;;;;;5018638;28;20046;-92
2023/10/10 20:47:39;;;;;;;0.10;0.10;;;;;;;;;;5010113;28;20044;-91
2023/10/10 20:50:05;;;;;;;0.10;0.10;;;;;;;;;;5015873;28;20098;-91
2023/10/10 20:52:31;;;;;;;0.20;0.20;;;;;;;;;;5004318;28;20476;-91
2023/10/10 20:54:57;;;;;;;0.20;0.20;;;;;;;;;;5020383;28;20045;-92
2023/10/10 20:57:24;;;;;;;0.10;0.10;;;;;;;;;;5020142;28;20572;-91
2023/10/10 20:59:50;;;;;;;0.10;0.10;;;;;;;;;;5003132;28;20057;-91
2023/10/10 21:02:16;;;;;;;0.00;0.00;;;;;;;;;;5003859;28;20056;-91
2023/10/10 21:04:45;;;;;;;0.10;0.10;;;;;;;;;;5005386;28;20124;-91
2023/10/10 21:07:14;;;;;;;0.20;0.20;;;;;;;;;;4993509;28;20041;-92
2023/10/10 21:09:40;;;;;;;0.10;0.10;;;;;;;;;;5004317;28;20045;-92
2023/10/10 21:12:07;;;;;;;0.10;0.10;;;;;;;;;;5012173;28;20509;-92
2023/10/10 21:14:36;;;;;;;0.10;0.10;;;;;;;;;;5008940;28;20046;-90
2023/10/10 21:17:08;;;;;;;0.10;0.10;;;;;;;;;;4999092;28;20112;-91
2023/10/10 21:19:35;;;;;;;0.10;0.10;;;;;;;;;;5003556;28;20395;-91
2023/10/10 21:22:10;;;;;;;0.10;0.10;;;;;;;;;;5001948;28;20037;-91
2023/10/10 21:24:39;;;;;;;0.17;0.17;;;;;;;;;;5006870;28;20045;-92
2023/10/10 21:27:10;;;;;;;0.10;0.10;;;;;;;;;;5002881;28;20054;-91
2023/10/10 21:29:39;;;;;;;0.10;0.10;;;;;;;;;;5001111;28;20037;-92
2023/10/10 21:32:11;;;;;;;0.20;0.20;;;;;;;;;;5000671;28;20108;-91
2023/10/10 21:34:46;;;;;;;0.10;0.10;;;;;;;;;;5003206;28;20042;-91
2023/10/10 21:37:19;;;;;;;0.05;0.05;;;;;;;;;;5000551;28;20034;-91
2023/10/10 21:39:47;;;;;;;0.00;0.00;;;;;;;;;;5001085;28;20042;-90
2023/10/10 21:42:38;;;;;;;0.05;0.05;;;;;;;;;;5001345;28;20045;-91
2023/10/10 21:45:11;;;;;;;0.10;0.10;;;;;;;;;;5001519;28;20064;-92
2023/10/10 21:47:46;;;;;;;0.10;0.10;;;;;;;;;;5007151;28;20238;-90